sensor_id;sensor_type;location;lat;lon;timestamp;pressure;altitude;pressure_sealevel;temperature;humidity
61337;BME280;47212;41.326;2.104;2023-02-17T00:00:16;103041.66;;;9.03;73.09
61337;BME280;47212;41.326;2.104;2023-02-17T00:05:21;103030.56;;;8.98;72.54
61337;BME280;47212;41.326;2.104;2023-02-17T00:10:23;103031.34;;;8.91;72.13
61337;BME280;47212;41.326;2.104;2023-02-17T00:15:25;103032.50;;;8.82;72.01
61337;BME280;47212;41.326;2.104;2023-02-17T00:20:27;103033.94;;;8.78;72.10
61337;BME280;47212;41.326;2.104;2023-02-17T00:25:30;103038.72;;;8.76;72.37
61337;BME280;47212;41.326;2.104;2023-02-17T00:30:37;103035.75;;;8.71;72.33
61337;BME280;47212;41.326;2.104;2023-02-17T00:35:40;103030.88;;;8.67;72.55
61337;BME280;47212;41.326;2.104;2023-02-17T00:40:42;103033.13;;;8.63;71.73
61337;BME280;47212;41.326;2.104;2023-02-17T00:45:45;103029.75;;;8.61;71.65
61337;BME280;47212;41.326;2.104;2023-02-17T00:50:48;103028.09;;;8.60;71.78
61337;BME280;47212;41.326;2.104;2023-02-17T00:55:50;103025.38;;;8.60;71.34
61337;BME280;47212;41.326;2.104;2023-02-17T01:00:54;103020.97;;;8.59;71.36
61337;BME280;47212;41.326;2.104;2023-02-17T01:05:56;103022.66;;;8.60;70.87
61337;BME280;47212;41.326;2.104;2023-02-17T01:10:59;103029.13;;;8.59;70.45
61337;BME280;47212;41.326;2.104;2023-02-17T01:16:01;103022.59;;;8.53;70.11
61337;BME280;47212;41.326;2.104;2023-02-17T01:21:03;103021.69;;;8.46;69.54
61337;BME280;47212;41.326;2.104;2023-02-17T01:26:12;103021.16;;;8.36;69.67
61337;BME280;47212;41.326;2.104;2023-02-17T01:31:17;103022.72;;;8.30;69.52
61337;BME280;47212;41.326;2.104;2023-02-17T01:36:21;103019.09;;;8.23;69.04
61337;BME280;47212;41.326;2.104;2023-02-17T01:41:25;103013.03;;;8.21;69.09
61337;BME280;47212;41.326;2.104;2023-02-17T01:46:31;103017.16;;;8.17;68.52
61337;BME280;47212;41.326;2.104;2023-02-17T01:51:35;103019.22;;;8.15;68.73
61337;BME280;47212;41.326;2.104;2023-02-17T01:56:41;103015.47;;;8.16;69.17
61337;BME280;47212;41.326;2.104;2023-02-17T02:08:40;103006.94;;;8.19;67.63
61337;BME280;47212;41.326;2.104;2023-02-17T02:13:45;103012.00;;;8.22;67.25
61337;BME280;47212;41.326;2.104;2023-02-17T02:25:35;102994.22;;;8.35;66.36
61337;BME280;47212;41.326;2.104;2023-02-17T02:30:48;102984.00;;;8.37;66.94
61337;BME280;47212;41.326;2.104;2023-02-17T02:36:14;102983.16;;;8.36;65.65
61337;BME280;47212;41.326;2.104;2023-02-17T02:41:26;102983.53;;;8.33;65.80
61337;BME280;47212;41.326;2.104;2023-02-17T02:46:30;102967.28;;;8.33;66.26
61337;BME280;47212;41.326;2.104;2023-02-17T03:08:01;102952.50;;;8.21;64.63
61337;BME280;47212;41.326;2.104;2023-02-17T03:13:05;102949.06;;;8.12;65.21
61337;BME280;47212;41.326;2.104;2023-02-17T03:18:07;102951.72;;;8.06;65.67
61337;BME280;47212;41.326;2.104;2023-02-17T03:23:09;102952.66;;;7.98;65.95
61337;BME280;47212;41.326;2.104;2023-02-17T03:28:12;102946.13;;;7.92;65.45
61337;BME280;47212;41.326;2.104;2023-02-17T03:33:15;102948.41;;;7.89;64.84
61337;BME280;47212;41.326;2.104;2023-02-17T03:38:17;102955.03;;;7.86;65.11
61337;BME280;47212;41.326;2.104;2023-02-17T03:43:19;102957.47;;;7.81;64.76
61337;BME280;47212;41.326;2.104;2023-02-17T03:48:26;102950.06;;;7.75;65.03
61337;BME280;47212;41.326;2.104;2023-02-17T03:53:28;102952.31;;;7.72;64.85
61337;BME280;47212;41.326;2.104;2023-02-17T03:58:30;102951.88;;;7.68;65.13
61337;BME280;47212;41.326;2.104;2023-02-17T04:03:37;102956.16;;;7.62;64.88
61337;BME280;47212;41.326;2.104;2023-02-17T04:08:40;102955.06;;;7.57;65.36
61337;BME280;47212;41.326;2.104;2023-02-17T04:13:47;102959.34;;;7.51;64.61
61337;BME280;47212;41.326;2.104;2023-02-17T04:19:14;102962.72;;;7.53;64.08
61337;BME280;47212;41.326;2.104;2023-02-17T04:24:41;102977.97;;;7.54;64.84
61337;BME280;47212;41.326;2.104;2023-02-17T04:29:50;102980.38;;;7.49;64.14
61337;BME280;47212;41.326;2.104;2023-02-17T04:34:52;102973.00;;;7.43;64.92
61337;BME280;47212;41.326;2.104;2023-02-17T04:39:54;102972.34;;;7.41;64.95
61337;BME280;47212;41.326;2.104;2023-02-17T04:44:57;102974.03;;;7.42;64.03
61337;BME280;47212;41.326;2.104;2023-02-17T04:49:59;102978.78;;;7.40;63.70
61337;BME280;47212;41.326;2.104;2023-02-17T04:55:02;102981.88;;;7.37;64.24
61337;BME280;47212;41.326;2.104;2023-02-17T05:09:03;102990.75;;;7.31;63.94
61337;BME280;47212;41.326;2.104;2023-02-17T05:14:10;102991.41;;;7.33;63.30
61337;BME280;47212;41.326;2.104;2023-02-17T05:19:15;103002.25;;;7.33;63.84
61337;BME280;47212;41.326;2.104;2023-02-17T05:24:23;103020.56;;;7.31;63.15
61337;BME280;47212;41.326;2.104;2023-02-17T05:29:29;103020.19;;;7.34;63.51
61337;BME280;47212;41.326;2.104;2023-02-17T05:34:44;103011.97;;;7.42;63.30
61337;BME280;47212;41.326;2.104;2023-02-17T05:39:49;103025.81;;;7.47;62.59
61337;BME280;47212;41.326;2.104;2023-02-17T05:44:55;103029.53;;;7.46;63.03
61337;BME280;47212;41.326;2.104;2023-02-17T05:50:00;103026.16;;;7.44;62.72
61337;BME280;47212;41.326;2.104;2023-02-17T05:55:08;103021.78;;;7.43;62.36
61337;BME280;47212;41.326;2.104;2023-02-17T06:00:22;103019.44;;;7.40;62.04
61337;BME280;47212;41.326;2.104;2023-02-17T06:05:28;103011.31;;;7.40;62.21
61337;BME280;47212;41.326;2.104;2023-02-17T06:10:34;103017.38;;;7.42;62.38
61337;BME280;47212;41.326;2.104;2023-02-17T06:15:38;103027.19;;;7.43;62.22
61337;BME280;47212;41.326;2.104;2023-02-17T06:20:56;103030.56;;;7.45;61.54
61337;BME280;47212;41.326;2.104;2023-02-17T06:25:59;103021.22;;;7.48;61.88
61337;BME280;47212;41.326;2.104;2023-02-17T06:31:04;103034.59;;;7.49;61.52
61337;BME280;47212;41.326;2.104;2023-02-17T06:36:07;103045.44;;;7.49;61.66
61337;BME280;47212;41.326;2.104;2023-02-17T06:41:16;103050.84;;;7.49;61.21
61337;BME280;47212;41.326;2.104;2023-02-17T06:46:21;103064.75;;;7.46;60.83
61337;BME280;47212;41.326;2.104;2023-02-17T06:51:28;103059.53;;;7.45;61.67
61337;BME280;47212;41.326;2.104;2023-02-17T06:56:36;103070.84;;;7.48;61.53
61337;BME280;47212;41.326;2.104;2023-02-17T07:01:39;103078.41;;;7.53;60.68
61337;BME280;47212;41.326;2.104;2023-02-17T07:06:45;103081.97;;;7.53;60.76
61337;BME280;47212;41.326;2.104;2023-02-17T07:11:48;103083.47;;;7.56;61.20
61337;BME280;47212;41.326;2.104;2023-02-17T07:16:55;103093.47;;;7.55;61.01
61337;BME280;47212;41.326;2.104;2023-02-17T07:22:25;103100.56;;;7.56;60.76
61337;BME280;47212;41.326;2.104;2023-02-17T07:27:39;103100.28;;;7.51;60.41
61337;BME280;47212;41.326;2.104;2023-02-17T07:33:12;103105.41;;;7.46;60.32
61337;BME280;47212;41.326;2.104;2023-02-17T07:38:18;103116.63;;;7.43;60.21
61337;BME280;47212;41.326;2.104;2023-02-17T07:43:22;103119.03;;;7.38;61.01
61337;BME280;47212;41.326;2.104;2023-02-17T07:48:26;103119.41;;;7.35;60.15
61337;BME280;47212;41.326;2.104;2023-02-17T07:53:37;103122.78;;;7.37;61.45
61337;BME280;47212;41.326;2.104;2023-02-17T07:58:44;103123.00;;;7.50;59.77
61337;BME280;47212;41.326;2.104;2023-02-17T08:05:43;103132.47;;;8.93;56.84
61337;BME280;47212;41.326;2.104;2023-02-17T08:12:44;103125.75;;;9.88;54.74
61337;BME280;47212;41.326;2.104;2023-02-17T08:18:10;103130.72;;;10.47;54.35
61337;BME280;47212;41.326;2.104;2023-02-17T08:23:16;103124.56;;;10.93;53.44
61337;BME280;47212;41.326;2.104;2023-02-17T08:28:23;103122.97;;;11.31;52.56
61337;BME280;47212;41.326;2.104;2023-02-17T08:33:29;103135.56;;;11.59;50.99
61337;BME280;47212;41.326;2.104;2023-02-17T08:38:48;103135.53;;;11.85;51.17
61337;BME280;47212;41.326;2.104;2023-02-17T08:43:55;103132.75;;;12.11;50.75
61337;BME280;47212;41.326;2.104;2023-02-17T08:49:01;103129.53;;;12.41;50.93
61337;BME280;47212;41.326;2.104;2023-02-17T08:54:07;103135.25;;;12.71;49.33
61337;BME280;47212;41.326;2.104;2023-02-17T08:59:15;103136.31;;;13.08;50.12
61337;BME280;47212;41.326;2.104;2023-02-17T09:04:27;103133.75;;;13.45;48.89
61337;BME280;47212;41.326;2.104;2023-02-17T09:09:35;103146.00;;;13.85;48.27
61337;BME280;47212;41.326;2.104;2023-02-17T09:14:52;103134.50;;;14.20;47.74
61337;BME280;47212;41.326;2.104;2023-02-17T09:20:05;103150.88;;;14.45;45.55
61337;BME280;47212;41.326;2.104;2023-02-17T09:25:48;103162.19;;;14.66;44.19
61337;BME280;47212;41.326;2.104;2023-02-17T09:30:59;103172.00;;;14.92;46.58
61337;BME280;47212;41.326;2.104;2023-02-17T09:36:14;103174.31;;;15.07;45.32
61337;BME280;47212;41.326;2.104;2023-02-17T09:46:41;103173.34;;;15.43;43.68
61337;BME280;47212;41.326;2.104;2023-02-17T09:52:34;103162.69;;;15.65;42.12
61337;BME280;47212;41.326;2.104;2023-02-17T09:57:52;103168.41;;;15.87;42.46
61337;BME280;47212;41.326;2.104;2023-02-17T10:03:18;103165.78;;;16.04;42.94
61337;BME280;47212;41.326;2.104;2023-02-17T10:19:37;103166.41;;;16.58;41.72
61337;BME280;47212;41.326;2.104;2023-02-17T10:24:46;103160.06;;;16.69;43.13
61337;BME280;47212;41.326;2.104;2023-02-17T10:30:18;103169.22;;;16.86;39.68
61337;BME280;47212;41.326;2.104;2023-02-17T10:40:46;103162.19;;;17.24;41.58
61337;BME280;47212;41.326;2.104;2023-02-17T10:45:59;103157.00;;;17.39;41.24
61337;BME280;47212;41.326;2.104;2023-02-17T10:51:13;103152.97;;;17.63;38.86
61337;BME280;47212;41.326;2.104;2023-02-17T10:56:40;103157.25;;;17.88;41.69
61337;BME280;47212;41.326;2.104;2023-02-17T11:01:47;103159.19;;;18.09;41.39
61337;BME280;47212;41.326;2.104;2023-02-17T11:06:57;103153.16;;;18.29;38.82
61337;BME280;47212;41.326;2.104;2023-02-17T11:12:23;103137.69;;;18.50;36.64
61337;BME280;47212;41.326;2.104;2023-02-17T11:17:38;103142.06;;;18.67;36.54
61337;BME280;47212;41.326;2.104;2023-02-17T11:28:21;103120.88;;;19.00;35.32
61337;BME280;47212;41.326;2.104;2023-02-17T11:33:40;103108.91;;;19.16;35.56
61337;BME280;47212;41.326;2.104;2023-02-17T11:38:47;103098.78;;;19.27;38.55
61337;BME280;47212;41.326;2.104;2023-02-17T11:43:57;103098.88;;;19.37;36.20
61337;BME280;47212;41.326;2.104;2023-02-17T11:54:33;103091.56;;;19.53;38.85
61337;BME280;47212;41.326;2.104;2023-02-17T12:16:47;103079.75;;;18.98;43.20
61337;BME280;47212;41.326;2.104;2023-02-17T12:22:24;103072.44;;;18.60;44.92
61337;BME280;47212;41.326;2.104;2023-02-17T12:27:50;103077.09;;;18.33;44.25
61337;BME280;47212;41.326;2.104;2023-02-17T12:38:59;103066.78;;;18.45;41.56
61337;BME280;47212;41.326;2.104;2023-02-17T12:44:27;103057.97;;;18.48;42.05
61337;BME280;47212;41.326;2.104;2023-02-17T12:49:48;103055.19;;;18.70;40.75
61337;BME280;47212;41.326;2.104;2023-02-17T13:01:11;103045.13;;;18.86;40.36
61337;BME280;47212;41.326;2.104;2023-02-17T13:06:38;103032.84;;;18.44;39.63
61337;BME280;47212;41.326;2.104;2023-02-17T13:12:16;103027.69;;;18.26;39.11
61337;BME280;47212;41.326;2.104;2023-02-17T13:17:39;103030.50;;;18.09;38.47
61337;BME280;47212;41.326;2.104;2023-02-17T13:23:09;103016.78;;;17.93;39.73
61337;BME280;47212;41.326;2.104;2023-02-17T13:28:32;103017.44;;;17.61;40.39
61337;BME280;47212;41.326;2.104;2023-02-17T13:33:52;103006.56;;;17.33;42.65
61337;BME280;47212;41.326;2.104;2023-02-17T13:39:31;103001.25;;;17.09;42.88
61337;BME280;47212;41.326;2.104;2023-02-17T13:44:42;103007.59;;;16.93;43.96
61337;BME280;47212;41.326;2.104;2023-02-17T13:55:39;103001.91;;;16.83;45.26
61337;BME280;47212;41.326;2.104;2023-02-17T14:00:49;103010.09;;;16.78;44.37
61337;BME280;47212;41.326;2.104;2023-02-17T14:06:56;102990.41;;;16.86;41.57
61337;BME280;47212;41.326;2.104;2023-02-17T14:11:55;102983.50;;;16.83;42.09
61337;BME280;47212;41.326;2.104;2023-02-17T14:22:58;102980.66;;;16.78;43.27
61337;BME280;47212;41.326;2.104;2023-02-17T14:28:26;102994.16;;;16.80;44.05
61337;BME280;47212;41.326;2.104;2023-02-17T14:33:32;102999.00;;;16.73;43.44
61337;BME280;47212;41.326;2.104;2023-02-17T14:38:40;102990.34;;;16.52;44.78
61337;BME280;47212;41.326;2.104;2023-02-17T14:43:47;102989.13;;;16.32;45.89
61337;BME280;47212;41.326;2.104;2023-02-17T14:48:51;102990.59;;;16.22;45.55
61337;BME280;47212;41.326;2.104;2023-02-17T14:54:03;102982.06;;;16.07;47.21
61337;BME280;47212;41.326;2.104;2023-02-17T14:59:13;102982.22;;;16.01;48.62
61337;BME280;47212;41.326;2.104;2023-02-17T15:04:18;102971.13;;;15.96;48.92
61337;BME280;47212;41.326;2.104;2023-02-17T15:09:34;102956.31;;;15.97;49.29
61337;BME280;47212;41.326;2.104;2023-02-17T15:14:43;102959.88;;;15.97;49.61
61337;BME280;47212;41.326;2.104;2023-02-17T15:19:57;102968.38;;;15.96;49.44
61337;BME280;47212;41.326;2.104;2023-02-17T15:30:26;102951.25;;;15.53;50.83
61337;BME280;47212;41.326;2.104;2023-02-17T15:35:38;102957.31;;;15.55;50.34
61337;BME280;47212;41.326;2.104;2023-02-17T15:40:52;102957.00;;;15.64;50.40
61337;BME280;47212;41.326;2.104;2023-02-17T15:46:19;102955.59;;;15.61;49.54
61337;BME280;47212;41.326;2.104;2023-02-17T15:51:28;102957.72;;;15.59;48.41
61337;BME280;47212;41.326;2.104;2023-02-17T15:56:51;102949.81;;;15.51;48.83
61337;BME280;47212;41.326;2.104;2023-02-17T16:02:18;102953.19;;;15.41;48.20
61337;BME280;47212;41.326;2.104;2023-02-17T16:07:23;102957.59;;;15.42;48.31
61337;BME280;47212;41.326;2.104;2023-02-17T16:12:29;102949.72;;;15.46;47.40
61337;BME280;47212;41.326;2.104;2023-02-17T16:17:45;102961.88;;;15.50;46.36
61337;BME280;47212;41.326;2.104;2023-02-17T16:22:53;102957.47;;;15.49;46.09
61337;BME280;47212;41.326;2.104;2023-02-17T16:28:01;102945.41;;;15.50;45.92
61337;BME280;47212;41.326;2.104;2023-02-17T16:33:12;102954.00;;;15.42;44.62
61337;BME280;47212;41.326;2.104;2023-02-17T16:38:21;102951.41;;;15.35;44.06
61337;BME280;47212;41.326;2.104;2023-02-17T16:43:24;102943.06;;;15.30;44.99
61337;BME280;47212;41.326;2.104;2023-02-17T16:48:35;102961.91;;;15.26;43.98
61337;BME280;47212;41.326;2.104;2023-02-17T16:53:41;102956.66;;;15.25;45.12
61337;BME280;47212;41.326;2.104;2023-02-17T16:58:52;102964.78;;;15.20;43.93
61337;BME280;47212;41.326;2.104;2023-02-17T17:03:55;102968.72;;;15.12;45.01
61337;BME280;47212;41.326;2.104;2023-02-17T17:09:04;102970.50;;;15.07;44.92
61337;BME280;47212;41.326;2.104;2023-02-17T17:14:13;102961.78;;;14.98;45.19
61337;BME280;47212;41.326;2.104;2023-02-17T17:19:26;102973.34;;;14.88;45.14
61337;BME280;47212;41.326;2.104;2023-02-17T17:24:36;102978.81;;;14.77;44.59
61337;BME280;47212;41.326;2.104;2023-02-17T17:29:46;102972.34;;;14.71;45.77
61337;BME280;47212;41.326;2.104;2023-02-17T17:34:52;102978.53;;;14.66;46.31
61337;BME280;47212;41.326;2.104;2023-02-17T17:40:15;102976.75;;;14.60;45.41
61337;BME280;47212;41.326;2.104;2023-02-17T17:45:27;102975.53;;;14.56;46.13
61337;BME280;47212;41.326;2.104;2023-02-17T17:50:35;102974.34;;;14.52;46.63
61337;BME280;47212;41.326;2.104;2023-02-17T17:55:42;102987.44;;;14.50;47.17
61337;BME280;47212;41.326;2.104;2023-02-17T18:01:12;102996.72;;;14.49;46.85
61337;BME280;47212;41.326;2.104;2023-02-17T18:06:26;102998.88;;;14.47;47.58
61337;BME280;47212;41.326;2.104;2023-02-17T18:11:37;102991.34;;;14.43;47.88
61337;BME280;47212;41.326;2.104;2023-02-17T18:16:53;103010.13;;;14.39;48.05
61337;BME280;47212;41.326;2.104;2023-02-17T18:22:06;103008.91;;;14.35;48.39
61337;BME280;47212;41.326;2.104;2023-02-17T18:27:14;103012.13;;;14.32;48.38
61337;BME280;47212;41.326;2.104;2023-02-17T18:32:21;103018.53;;;14.26;48.54
61337;BME280;47212;41.326;2.104;2023-02-17T18:37:31;103021.13;;;14.21;48.75
61337;BME280;47212;41.326;2.104;2023-02-17T18:42:41;103019.91;;;14.17;48.80
61337;BME280;47212;41.326;2.104;2023-02-17T18:47:48;103028.59;;;14.14;49.25
61337;BME280;47212;41.326;2.104;2023-02-17T18:53:22;103018.09;;;14.11;49.37
61337;BME280;47212;41.326;2.104;2023-02-17T18:58:26;103017.50;;;14.09;49.45
61337;BME280;47212;41.326;2.104;2023-02-17T19:03:36;103021.31;;;14.08;49.35
61337;BME280;47212;41.326;2.104;2023-02-17T19:08:42;103016.28;;;14.05;49.64
61337;BME280;47212;41.326;2.104;2023-02-17T19:13:44;103023.75;;;13.97;49.84
61337;BME280;47212;41.326;2.104;2023-02-17T19:18:48;103027.19;;;13.93;49.85
61337;BME280;47212;41.326;2.104;2023-02-17T19:23:54;103033.34;;;13.88;50.08
61337;BME280;47212;41.326;2.104;2023-02-17T19:29:09;103036.34;;;13.80;50.09
61337;BME280;47212;41.326;2.104;2023-02-17T19:34:15;103024.19;;;13.76;49.96
61337;BME280;47212;41.326;2.104;2023-02-17T19:39:27;103028.44;;;13.72;50.48
61337;BME280;47212;41.326;2.104;2023-02-17T19:44:32;103019.47;;;13.65;50.54
61337;BME280;47212;41.326;2.104;2023-02-17T19:49:35;103026.75;;;13.53;51.52
61337;BME280;47212;41.326;2.104;2023-02-17T19:54:37;103032.53;;;13.45;51.12
61337;BME280;47212;41.326;2.104;2023-02-17T19:59:40;103042.88;;;13.43;51.26
61337;BME280;47212;41.326;2.104;2023-02-17T20:04:47;103042.03;;;13.42;51.01
61337;BME280;47212;41.326;2.104;2023-02-17T20:09:50;103031.91;;;13.43;51.34
61337;BME280;47212;41.326;2.104;2023-02-17T20:14:59;103029.63;;;13.39;51.70
61337;BME280;47212;41.326;2.104;2023-02-17T20:20:08;103041.03;;;13.36;51.91
61337;BME280;47212;41.326;2.104;2023-02-17T20:25:31;103043.16;;;13.34;52.14
61337;BME280;47212;41.326;2.104;2023-02-17T20:30:38;103047.84;;;13.27;51.86
61337;BME280;47212;41.326;2.104;2023-02-17T20:35:49;103042.66;;;13.19;51.25
61337;BME280;47212;41.326;2.104;2023-02-17T20:41:02;103039.78;;;13.07;50.68
61337;BME280;47212;41.326;2.104;2023-02-17T20:46:12;103035.00;;;12.96;48.78
61337;BME280;47212;41.326;2.104;2023-02-17T20:51:19;103033.22;;;12.84;49.01
61337;BME280;47212;41.326;2.104;2023-02-17T20:56:24;103026.56;;;12.73;49.57
61337;BME280;47212;41.326;2.104;2023-02-17T21:01:34;103033.59;;;12.62;49.37
61337;BME280;47212;41.326;2.104;2023-02-17T21:06:41;103044.78;;;12.54;49.44
61337;BME280;47212;41.326;2.104;2023-02-17T21:11:46;103046.94;;;12.46;48.99
61337;BME280;47212;41.326;2.104;2023-02-17T21:17:19;103049.69;;;12.39;48.85
61337;BME280;47212;41.326;2.104;2023-02-17T21:22:25;103043.88;;;12.29;49.14
61337;BME280;47212;41.326;2.104;2023-02-17T21:27:36;103041.38;;;12.21;48.82
61337;BME280;47212;41.326;2.104;2023-02-17T21:32:43;103037.19;;;12.11;48.96
61337;BME280;47212;41.326;2.104;2023-02-17T21:37:53;103031.78;;;12.05;49.62
61337;BME280;47212;41.326;2.104;2023-02-17T21:42:57;103025.91;;;12.01;49.61
61337;BME280;47212;41.326;2.104;2023-02-17T21:48:24;103024.66;;;11.97;49.55
61337;BME280;47212;41.326;2.104;2023-02-17T21:53:33;103036.44;;;11.91;49.83
61337;BME280;47212;41.326;2.104;2023-02-17T21:58:38;103039.81;;;11.87;50.78
61337;BME280;47212;41.326;2.104;2023-02-17T22:03:49;103044.66;;;11.78;50.04
61337;BME280;47212;41.326;2.104;2023-02-17T22:09:10;103042.78;;;11.72;50.55
61337;BME280;47212;41.326;2.104;2023-02-17T22:14:19;103049.72;;;11.68;50.31
61337;BME280;47212;41.326;2.104;2023-02-17T22:19:23;103042.81;;;11.59;50.50
61337;BME280;47212;41.326;2.104;2023-02-17T22:24:27;103040.31;;;11.51;50.96
61337;BME280;47212;41.326;2.104;2023-02-17T22:29:31;103045.78;;;11.44;51.20
61337;BME280;47212;41.326;2.104;2023-02-17T22:34:39;103040.75;;;11.34;51.33
61337;BME280;47212;41.326;2.104;2023-02-17T22:39:45;103045.38;;;11.27;51.17
61337;BME280;47212;41.326;2.104;2023-02-17T22:44:53;103046.81;;;11.23;51.93
61337;BME280;47212;41.326;2.104;2023-02-17T22:50:01;103048.91;;;11.21;51.36
61337;BME280;47212;41.326;2.104;2023-02-17T22:55:07;103045.97;;;11.16;51.97
61337;BME280;47212;41.326;2.104;2023-02-17T23:00:15;103055.63;;;11.12;51.71
61337;BME280;47212;41.326;2.104;2023-02-17T23:05:20;103043.47;;;11.08;51.80
61337;BME280;47212;41.326;2.104;2023-02-17T23:10:41;103047.22;;;11.07;52.10
61337;BME280;47212;41.326;2.104;2023-02-17T23:15:46;103042.81;;;11.06;51.98
61337;BME280;47212;41.326;2.104;2023-02-17T23:20:51;103048.69;;;11.03;51.65
61337;BME280;47212;41.326;2.104;2023-02-17T23:25:57;103053.09;;;10.97;51.76
61337;BME280;47212;41.326;2.104;2023-02-17T23:31:01;103052.47;;;10.89;51.67
61337;BME280;47212;41.326;2.104;2023-02-17T23:36:06;103046.16;;;10.81;51.86
61337;BME280;47212;41.326;2.104;2023-02-17T23:41:18;103038.19;;;10.73;51.99
61337;BME280;47212;41.326;2.104;2023-02-17T23:46:28;103041.97;;;10.66;52.20
61337;BME280;47212;41.326;2.104;2023-02-17T23:51:31;103028.97;;;10.61;51.93
61337;BME280;47212;41.326;2.104;2023-02-17T23:56:36;103018.91;;;10.55;52.28
